Time;durP1;ratioP1;P1;durP2;ratioP2;P2;SDS_P1;SDS_P2;PMS_P1;PMS_P2;Temp;Humidity;BMP_temperature;BMP_pressure;BME280_temperature;BME280_humidity;BME280_pressure;Samples;Min_cycle;Max_cycle;Signal;HPM_P1;HPM_P2
2022/05/08 00:00:50;;;;;;;22.88;10.80;;;;;;;6.19;42.37;100833.34;4960421;28;20042;-78
2022/05/08 00:03:15;;;;;;;26.25;11.35;;;;;;;6.09;42.61;100829.28;4960560;28;20422;-78
2022/05/08 00:05:41;;;;;;;26.33;11.45;;;;;;;6.00;43.16;100830.50;4960803;28;20121;-78
2022/05/08 00:08:08;;;;;;;22.67;11.73;;;;;;;5.91;42.96;100822.88;4978187;28;20051;-77
2022/05/08 00:10:34;;;;;;;29.48;11.77;;;;;;;5.86;43.11;100827.47;4976572;28;20134;-77
2022/05/08 00:13:00;;;;;;;22.50;11.48;;;;;;;5.80;43.04;100819.75;4926001;28;20465;-78
2022/05/08 00:15:26;;;;;;;23.50;11.38;;;;;;;5.74;43.26;100822.59;4960193;28;20133;-77
2022/05/08 00:17:53;;;;;;;29.38;11.20;;;;;;;5.69;43.40;100816.63;4944408;28;20137;-77
2022/05/08 00:20:20;;;;;;;24.00;11.45;;;;;;;5.65;43.47;100825.59;4944645;28;20061;-77
2022/05/08 00:22:46;;;;;;;21.67;11.23;;;;;;;5.64;43.73;100823.84;4944157;28;20053;-76
2022/05/08 00:25:13;;;;;;;24.33;11.88;;;;;;;5.64;43.70;100822.06;4942473;28;20043;-78
2022/05/08 00:27:38;;;;;;;22.92;11.70;;;;;;;5.63;43.66;100828.28;4944103;28;20057;-78
2022/05/08 00:30:05;;;;;;;25.52;11.07;;;;;;;5.57;43.61;100804.66;4977644;28;20054;-78
2022/05/08 00:32:31;;;;;;;23.02;10.70;;;;;;;5.66;43.86;100827.34;4944249;28;20134;-77
2022/05/08 00:34:58;;;;;;;36.22;13.13;;;;;;;5.69;43.63;100824.56;4976137;28;20450;-78
2022/05/08 00:37:23;;;;;;;20.40;10.32;;;;;;;5.78;43.59;100832.19;4959868;28;20071;-76
2022/05/08 00:39:49;;;;;;;29.58;10.98;;;;;;;5.80;43.52;100835.66;4959798;28;20046;-77
2022/05/08 00:42:18;;;;;;;20.38;9.73;;;;;;;5.74;43.69;100814.66;4959911;28;20046;-79
2022/05/08 00:44:44;;;;;;;25.15;10.60;;;;;;;5.88;43.56;100833.59;4940380;29;20054;-78
2022/05/08 00:47:10;;;;;;;21.33;10.55;;;;;;;5.91;43.62;100828.19;4941813;28;20046;-78
2022/05/08 00:49:36;;;;;;;22.15;10.52;;;;;;;5.97;43.68;100837.72;4972475;28;20054;-78
2022/05/08 00:52:04;;;;;;;18.33;10.23;;;;;;;6.01;43.09;100840.19;4962904;28;20046;-78
2022/05/08 00:54:31;;;;;;;35.88;11.10;;;;;;;6.09;43.25;100837.25;4978635;28;20066;-77
2022/05/08 00:56:58;;;;;;;25.13;10.68;;;;;;;6.13;43.36;100832.69;4978529;28;20468;-78
2022/05/08 00:59:24;;;;;;;26.92;10.45;;;;;;;6.19;42.94;100838.63;4962704;28;20136;-77
2022/05/08 01:01:50;;;;;;;22.85;10.45;;;;;;;6.15;42.90;100818.44;4962673;28;20180;-79
2022/05/08 01:04:16;;;;;;;22.17;10.70;;;;;;;6.31;42.67;100832.00;4947800;28;20129;-79
2022/05/08 01:06:44;;;;;;;24.30;10.80;;;;;;;6.35;42.80;100832.75;4962421;28;20046;-79
2022/05/08 01:09:10;;;;;;;50.88;12.77;;;;;;;6.33;42.82;100830.16;4944444;28;20402;-76
2022/05/08 01:11:36;;;;;;;43.92;11.52;;;;;;;6.43;42.78;100830.63;4946700;28;20130;-78
2022/05/08 01:14:03;;;;;;;29.92;12.23;;;;;;;6.46;42.76;100826.06;4978558;28;20397;-78
2022/05/08 01:16:29;;;;;;;34.83;11.43;;;;;;;6.57;42.70;100838.94;4978381;28;20394;-77
2022/05/08 01:18:55;;;;;;;21.13;11.27;;;;;;;6.59;42.38;100825.63;4946540;28;20551;-78
2022/05/08 01:21:41;;;;;;;22.70;10.00;;;;;;;6.66;42.64;100827.97;4962637;28;20133;-78
2022/05/08 01:24:14;;;;;;;22.55;10.93;;;;;;;6.75;42.54;100832.03;4946537;28;20042;-78
2022/05/08 01:26:40;;;;;;;26.98;10.55;;;;;;;6.84;42.27;100831.66;4962412;28;20141;-78
2022/05/08 01:29:06;;;;;;;17.38;9.77;;;;;;;6.90;41.88;100839.38;4962143;28;20644;-78
2022/05/08 01:31:32;;;;;;;28.30;9.13;;;;;;;6.96;42.11;100836.47;4978295;28;20406;-79
2022/05/08 01:33:58;;;;;;;34.30;9.45;;;;;;;7.03;41.68;100837.97;4964144;28;20046;-79
2022/05/08 01:36:24;;;;;;;28.15;9.40;;;;;;;7.11;41.42;100831.44;4981401;28;20461;-77
2022/05/08 01:38:51;;;;;;;21.42;9.13;;;;;;;7.19;41.33;100838.19;4996706;28;20050;-79
2022/05/08 01:41:17;;;;;;;20.92;10.40;;;;;;;7.27;41.40;100837.84;4996680;28;20069;-79
2022/05/08 01:43:43;;;;;;;25.70;10.32;;;;;;;7.30;41.33;100835.06;4995461;28;20125;-76
2022/05/08 01:46:10;;;;;;;32.65;9.88;;;;;;;7.35;41.43;100832.22;4961870;28;20042;-77
2022/05/08 01:48:36;;;;;;;27.48;10.40;;;;;;;7.37;41.15;100841.88;4977799;28;20184;-77
2022/05/08 01:51:03;;;;;;;30.30;9.88;;;;;;;7.32;41.28;100835.84;4978113;28;20406;-76
2022/05/08 01:53:32;;;;;;;25.30;9.98;;;;;;;7.39;41.07;100837.31;4945616;28;20077;-78
2022/05/08 01:55:58;;;;;;;25.50;9.38;;;;;;;7.46;41.11;100844.09;4946035;28;20042;-78
2022/05/08 01:58:26;;;;;;;27.83;9.40;;;;;;;7.48;40.82;100841.38;4958363;28;20051;-78
2022/05/08 02:00:53;;;;;;;28.63;9.43;;;;;;;7.38;40.67;100827.63;4990618;28;20049;-78
2022/05/08 02:03:20;;;;;;;19.48;9.50;;;;;;;7.47;40.38;100837.84;4995025;28;20125;-79
2022/05/08 02:05:46;;;;;;;19.73;8.68;;;;;;;7.51;40.46;100841.25;4942132;28;20046;-76
2022/05/08 02:08:13;;;;;;;17.50;8.63;;;;;;;7.54;40.38;100841.97;4959279;28;20142;-77
2022/05/08 02:10:42;;;;;;;22.77;8.50;;;;;;;7.59;40.17;100838.25;4961533;28;20046;-78
2022/05/08 02:13:09;;;;;;;14.23;7.43;;;;;;;7.66;39.66;100842.38;4959214;28;20057;-78
2022/05/08 02:15:36;;;;;;;20.25;8.23;;;;;;;7.71;39.30;100841.25;4958023;28;20050;-77
2022/05/08 02:18:08;;;;;;;;;;;;;;;7.76;39.40;100849.03;4972963;28;20058;-77
2022/05/08 02:20:37;;;;;;;35.47;7.93;;;;;;;7.78;39.01;100841.81;4977701;28;19926;-78
2022/05/08 02:23:03;;;;;;;21.85;7.25;;;;;;;7.76;38.91;100835.72;4995059;28;20045;-78
2022/05/08 02:25:32;;;;;;;35.60;7.47;;;;;;;7.78;38.81;100821.41;4962678;28;20046;-78
2022/05/08 02:27:58;;;;;;;18.10;7.85;;;;;;;7.93;38.45;100835.81;4995997;28;20048;-78
2022/05/08 02:30:25;;;;;;;16.58;6.47;;;;;;;7.99;38.32;100840.00;4945866;28;20141;-77
2022/05/08 02:32:52;;;;;;;18.63;6.32;;;;;;;8.02;38.16;100838.06;4977947;28;20096;-78
2022/05/08 02:35:23;;;;;;;30.20;7.30;;;;;;;7.98;38.11;100820.50;4961456;28;20046;-78
2022/05/08 02:37:54;;;;;;;31.52;7.10;;;;;;;8.13;38.24;100831.41;4994452;28;20046;-77
2022/05/08 02:40:22;;;;;;;17.98;6.43;;;;;;;8.21;38.17;100846.06;4961158;28;20064;-79
2022/05/08 02:42:48;;;;;;;18.30;5.93;;;;;;;8.27;37.86;100832.47;4961526;28;20077;-79
2022/05/08 02:45:14;;;;;;;20.17;5.38;;;;;;;8.36;37.92;100843.63;4976577;28;20050;-79
2022/05/08 02:47:44;;;;;;;16.67;6.35;;;;;;;8.45;37.46;100852.09;4977427;28;20046;-77
2022/05/08 02:50:10;;;;;;;19.10;5.80;;;;;;;8.47;37.24;100842.22;4977306;28;20057;-77
2022/05/08 02:52:38;;;;;;;14.88;6.05;;;;;;;8.64;37.36;100853.88;4977630;28;20077;-79
2022/05/08 03:00:38;;;;;;;11.70;4.32;;;;;;;8.93;36.55;100861.31;4961617;28;20421;-79
2022/05/08 03:03:05;;;;;;;17.60;5.00;;;;;;;9.04;36.17;100859.94;4958829;28;20098;-79
2022/05/08 03:05:32;;;;;;;12.57;5.15;;;;;;;9.08;36.48;100869.53;4977058;28;20516;-78
2022/05/08 03:07:58;;;;;;;13.07;5.30;;;;;;;9.17;36.52;100867.25;4945246;28;20053;-81
2022/05/08 03:10:24;;;;;;;10.75;4.50;;;;;;;9.27;36.20;100865.00;4942547;28;20045;-78
2022/05/08 03:12:50;;;;;;;11.40;4.93;;;;;;;9.33;36.16;100867.38;4955682;28;20038;-79
2022/05/08 03:15:17;;;;;;;15.45;4.95;;;;;;;9.42;36.30;100864.22;4976527;28;20046;-81
2022/05/08 03:17:47;;;;;;;13.07;4.85;;;;;;;9.55;36.04;100866.25;4961267;28;20519;-85
2022/05/08 03:20:13;;;;;;;15.75;5.35;;;;;;;9.65;35.87;100864.84;4960537;28;20092;-82
2022/05/08 03:22:38;;;;;;;15.98;4.63;;;;;;;9.73;35.39;100873.31;4976490;28;20505;-81
2022/05/08 03:25:05;;;;;;;28.75;4.45;;;;;;;9.80;35.43;100874.72;4944111;28;20038;-78
2022/05/08 03:27:31;;;;;;;27.38;4.95;;;;;;;9.91;35.27;100875.00;4959905;28;20077;-81
2022/05/08 03:29:58;;;;;;;54.75;7.45;;;;;;;10.02;34.80;100885.13;4960178;28;20046;-79
2022/05/08 03:32:24;;;;;;;18.23;4.78;;;;;;;10.13;34.95;100879.22;4976595;28;20054;-78
2022/05/08 03:34:50;;;;;;;22.35;5.72;;;;;;;10.24;34.31;100884.00;4976222;28;20046;-82
2022/05/08 03:37:17;;;;;;;16.13;5.65;;;;;;;10.26;34.63;100861.59;4959681;28;20039;-81
2022/05/08 03:39:43;;;;;;;15.93;5.15;;;;;;;10.45;34.43;100883.72;4995354;28;20042;-79
2022/05/08 03:42:10;;;;;;;16.80;5.22;;;;;;;10.53;34.20;100877.06;4961179;28;20042;-82
2022/05/08 03:44:37;;;;;;;19.63;5.47;;;;;;;10.58;34.23;100867.84;4957502;28;20047;-79
2022/05/08 03:47:03;;;;;;;14.85;6.10;;;;;;;10.74;34.33;100881.22;4990601;28;20046;-77
2022/05/08 03:49:30;;;;;;;17.30;6.32;;;;;;;10.91;34.06;100875.81;4975963;28;20058;-79
2022/05/08 03:51:56;;;;;;;11.75;6.10;;;;;;;10.97;33.56;100879.06;4960405;28;20082;-79
2022/05/08 03:54:22;;;;;;;20.33;6.38;;;;;;;11.10;33.69;100878.28;4975841;28;20042;-79
2022/05/08 03:56:48;;;;;;;14.25;6.50;;;;;;;11.22;32.88;100874.03;4976835;28;20046;-77
2022/05/08 03:59:14;;;;;;;13.80;5.90;;;;;;;11.33;32.57;100868.91;4960564;28;20225;-77
2022/05/08 04:01:41;;;;;;;15.75;5.45;;;;;;;11.44;32.24;100862.91;4994235;28;20552;-82
2022/05/08 04:04:08;;;;;;;14.57;4.97;;;;;;;11.53;32.13;100858.81;4960585;28;20049;-82
2022/05/08 04:06:34;;;;;;;13.23;4.72;;;;;;;11.63;31.51;100862.69;4943763;28;20038;-78
2022/05/08 04:09:00;;;;;;;18.42;5.30;;;;;;;11.66;30.86;100857.16;4959399;28;20042;-79
2022/05/08 04:11:29;;;;;;;22.27;5.35;;;;;;;11.77;31.09;100869.88;4975797;28;20053;-78
2022/05/08 04:13:56;;;;;;;13.13;4.55;;;;;;;11.84;30.86;100865.91;4959691;28;20042;-79
2022/05/08 04:16:24;;;;;;;12.27;4.28;;;;;;;11.98;31.31;100868.59;4975478;28;20073;-79
2022/05/08 04:18:51;;;;;;;16.02;3.88;;;;;;;12.06;30.89;100870.81;4960628;28;20046;-78
2022/05/08 04:21:17;;;;;;;13.05;4.35;;;;;;;12.07;31.17;100857.31;4959729;28;20050;-83
2022/05/08 04:26:29;;;;;;;24.25;5.40;;;;;;;12.22;30.50;100850.13;4965255;28;20139;-85
2022/05/08 04:28:55;;;;;;;15.98;4.20;;;;;;;12.29;29.51;100848.78;4990305;28;20049;-82
2022/05/08 04:31:21;;;;;;;36.20;4.07;;;;;;;12.37;29.92;100859.91;4993111;28;20049;-84
2022/05/08 04:33:47;;;;;;;18.60;4.00;;;;;;;12.36;29.81;100852.78;4959821;28;20046;-82
2022/05/08 04:36:14;;;;;;;13.85;3.55;;;;;;;12.47;30.04;100851.25;4991694;28;20042;-80
2022/05/08 04:38:40;;;;;;;15.00;3.78;;;;;;;12.50;30.54;100829.59;4960124;28;20513;-79
2022/05/08 04:41:06;;;;;;;11.55;3.45;;;;;;;12.82;30.21;100848.97;4960369;28;20062;-83
2022/05/08 04:43:33;;;;;;;11.50;3.78;;;;;;;12.95;29.60;100839.16;4978812;28;20078;-78
2022/05/08 04:45:59;;;;;;;8.90;3.85;;;;;;;13.15;29.54;100845.88;4978839;28;20505;-79
2022/05/08 04:48:25;;;;;;;16.90;4.07;;;;;;;13.25;28.66;100846.16;4962601;28;20077;-81
2022/05/08 04:50:51;;;;;;;15.63;5.13;;;;;;;13.34;28.89;100838.34;4946959;28;20058;-80
2022/05/08 04:53:17;;;;;;;7.00;3.50;;;;;;;13.42;27.94;100831.59;4978989;28;20042;-79
2022/05/08 04:55:43;;;;;;;11.10;3.85;;;;;;;13.50;27.74;100831.91;4962753;28;20445;-78
2022/05/08 04:58:08;;;;;;;11.85;4.00;;;;;;;13.59;28.10;100825.94;4978612;28;20057;-79
2022/05/08 05:00:34;;;;;;;18.50;3.55;;;;;;;13.75;28.05;100821.19;4962584;28;20042;-80
2022/05/08 05:03:02;;;;;;;9.20;4.32;;;;;;;13.92;27.80;100825.41;4978760;28;20468;-78
2022/05/08 05:05:28;;;;;;;10.60;3.70;;;;;;;13.99;27.31;100821.31;4959000;28;20501;-78
2022/05/08 05:07:53;;;;;;;14.82;3.08;;;;;;;14.17;26.87;100819.13;4970932;28;20043;-78
2022/05/08 05:10:19;;;;;;;13.40;3.85;;;;;;;14.28;26.83;100821.06;4977745;28;20053;-78
2022/05/08 05:12:46;;;;;;;10.05;3.67;;;;;;;14.40;26.87;100812.09;4995665;28;20052;-81
2022/05/08 05:15:12;;;;;;;9.75;3.72;;;;;;;14.51;26.87;100816.72;4947241;28;20034;-80
2022/05/08 05:17:38;;;;;;;18.73;3.33;;;;;;;14.29;25.79;100804.81;4959285;28;20124;-79
2022/05/08 05:20:05;;;;;;;10.93;4.50;;;;;;;14.48;26.13;100806.16;4959946;28;20047;-80
2022/05/08 05:22:31;;;;;;;7.75;3.13;;;;;;;14.67;25.63;100798.50;4962436;28;20141;-80
2022/05/08 05:24:58;;;;;;;9.32;2.92;;;;;;;14.75;25.53;100793.41;4978402;28;20089;-80
2022/05/08 05:27:25;;;;;;;7.43;3.10;;;;;;;14.94;25.15;100783.97;4962816;28;20070;-80
2022/05/08 05:29:51;;;;;;;5.68;2.83;;;;;;;15.01;25.12;100783.38;4994339;28;20137;-78
2022/05/08 05:32:17;;;;;;;8.88;2.70;;;;;;;15.22;24.46;100778.16;4978242;28;20145;-78
2022/05/08 05:34:43;;;;;;;8.38;2.60;;;;;;;15.37;24.45;100783.38;4977820;28;20133;-78
2022/05/08 05:37:09;;;;;;;7.22;3.00;;;;;;;15.47;24.29;100773.59;4946200;28;20133;-79
2022/05/08 05:39:36;;;;;;;4.78;2.30;;;;;;;15.57;23.69;100771.03;4962229;28;20050;-79
2022/05/08 05:42:02;;;;;;;9.20;2.60;;;;;;;15.57;23.14;100766.53;4978230;28;20452;-79
2022/05/08 05:44:28;;;;;;;5.03;2.03;;;;;;;15.70;22.34;100767.28;4978261;28;20061;-78
2022/05/08 05:49:39;;;;;;;7.90;2.60;;;;;;;15.87;22.70;100759.69;4977348;28;20153;-79
2022/05/08 05:52:08;;;;;;;12.30;2.63;;;;;;;15.99;22.67;100750.66;4962004;28;20125;-79
2022/05/08 05:54:35;;;;;;;11.32;2.70;;;;;;;16.13;22.53;100749.50;4978266;28;20045;-79
2022/05/08 05:57:02;;;;;;;13.98;2.92;;;;;;;16.30;21.90;100753.56;4977902;28;20053;-79
2022/05/08 05:59:28;;;;;;;8.75;3.15;;;;;;;16.42;22.47;100750.69;4961450;28;20077;-79
2022/05/08 06:01:55;;;;;;;5.47;2.85;;;;;;;16.58;21.80;100744.88;4974851;28;20042;-80
2022/05/08 06:04:21;;;;;;;7.25;2.53;;;;;;;16.57;21.48;100740.47;4960864;28;20077;-78
2022/05/08 06:06:47;;;;;;;9.95;3.20;;;;;;;16.65;21.18;100739.84;4945384;28;20046;-79
2022/05/08 06:09:13;;;;;;;8.68;2.78;;;;;;;16.61;21.33;100743.78;4961194;28;20045;-78
2022/05/08 06:11:39;;;;;;;7.43;2.88;;;;;;;16.68;21.54;100740.44;4977202;28;20046;-77
2022/05/08 06:14:05;;;;;;;11.73;2.90;;;;;;;16.44;21.75;100734.41;4961192;28;20085;-81
2022/05/08 06:16:31;;;;;;;9.07;2.50;;;;;;;16.36;21.44;100724.25;4994718;28;20049;-78
2022/05/08 06:18:58;;;;;;;6.43;2.67;;;;;;;16.53;21.27;100717.44;4941925;28;20070;-80
2022/05/08 06:21:25;;;;;;;9.85;2.47;;;;;;;16.74;21.13;100718.38;4961207;28;20049;-79
2022/05/08 06:23:54;;;;;;;8.60;2.53;;;;;;;16.88;20.96;100714.50;4957790;28;20448;-79
2022/05/08 06:26:23;;;;;;;8.18;2.30;;;;;;;16.84;20.07;100717.59;4975672;28;20166;-81
2022/05/08 06:28:50;;;;;;;4.43;2.42;;;;;;;16.56;20.31;100714.47;4961589;28;20050;-79
2022/05/08 06:31:18;;;;;;;9.55;3.60;;;;;;;16.33;20.59;100707.44;4959724;28;20098;-79
2022/05/08 06:33:45;;;;;;;10.30;2.40;;;;;;;15.85;21.02;100697.81;4960585;28;20461;-78
2022/05/08 06:36:11;;;;;;;4.78;2.55;;;;;;;15.77;20.76;100690.34;4976780;28;20049;-82
2022/05/08 06:38:37;;;;;;;6.38;2.42;;;;;;;15.95;20.94;100696.09;4977049;28;20042;-80
2022/05/08 06:41:03;;;;;;;7.03;2.30;;;;;;;16.16;20.92;100696.16;4944746;28;20045;-78
2022/05/08 06:43:29;;;;;;;7.22;2.60;;;;;;;16.32;20.89;100690.38;4976694;28;20042;-80
2022/05/08 06:45:56;;;;;;;4.63;2.42;;;;;;;16.68;21.36;100680.19;4960761;28;20045;-90
2022/05/08 06:48:22;;;;;;;3.63;1.98;;;;;;;16.96;20.65;100681.44;4960765;28;20125;-86
2022/05/08 06:50:48;;;;;;;6.20;2.22;;;;;;;17.25;21.02;100678.94;4977656;28;20127;-89
2022/05/08 06:53:15;;;;;;;6.80;2.55;;;;;;;17.46;21.17;100676.22;4945605;28;20042;-85
2022/05/08 06:55:43;;;;;;;9.30;2.42;;;;;;;17.67;20.39;100666.19;4957879;28;20046;-84
2022/05/08 06:58:09;;;;;;;3.33;2.47;;;;;;;17.87;19.87;100674.44;4957244;28;20102;-81
2022/05/08 07:03:20;;;;;;;5.75;2.55;;;;;;;18.15;21.84;100654.69;4959780;28;20129;-90
2022/05/08 07:05:47;;;;;;;7.32;2.75;;;;;;;18.51;22.82;100657.75;4946780;28;20049;-92
2022/05/08 07:08:14;;;;;;;8.52;2.42;;;;;;;18.66;18.74;100661.72;4961758;28;20140;-80
2022/05/08 07:10:41;;;;;;;8.45;2.20;;;;;;;18.94;20.97;100656.47;4978644;28;20046;-80
2022/05/08 07:13:07;;;;;;;5.15;2.60;;;;;;;19.27;21.11;100651.56;4983327;28;20042;-84
2022/05/08 07:15:33;;;;;;;5.75;2.65;;;;;;;19.65;21.54;100637.88;4962520;28;20042;-85
2022/05/08 07:17:59;;;;;;;11.63;2.30;;;;;;;19.89;19.88;100642.75;4962135;28;20424;-88
2022/05/08 07:20:26;;;;;;;6.60;1.92;;;;;;;19.88;19.20;100627.47;4948177;28;20046;-83
2022/05/08 07:22:53;;;;;;;8.40;2.13;;;;;;;20.06;19.23;100624.81;4955666;28;20073;-89
2022/05/08 07:25:20;;;;;;;3.70;1.92;;;;;;;20.10;18.64;100625.34;4943920;28;20118;-79
2022/05/08 07:27:48;;;;;;;3.92;1.77;;;;;;;20.08;19.83;100614.66;4975677;28;20532;-89
2022/05/08 07:30:15;;;;;;;4.97;1.77;;;;;;;20.40;18.49;100610.56;4977250;28;20047;-88
2022/05/08 07:32:44;;;;;;;6.55;1.98;;;;;;;20.18;18.81;100611.00;4961267;28;20563;-83
2022/05/08 07:37:59;;;;;;;2.65;1.80;;;;;;;19.89;17.28;100595.75;4948913;28;20072;-81
2022/05/08 07:40:26;;;;;;;7.07;1.70;;;;;;;19.49;18.33;100593.41;4972124;28;20490;-83
2022/05/08 07:42:52;;;;;;;6.10;1.52;;;;;;;19.56;18.02;100589.09;4977520;28;20137;-81
2022/05/08 07:45:19;;;;;;;4.38;1.90;;;;;;;20.04;18.04;100587.94;4962049;28;20098;-81
2022/05/08 07:47:48;;;;;;;5.72;1.80;;;;;;;20.38;17.65;100575.41;4943146;28;20038;-88
2022/05/08 07:50:18;;;;;;;6.60;1.90;;;;;;;20.80;17.43;100573.91;4993064;28;20057;-86
2022/05/08 07:52:44;;;;;;;4.00;1.80;;;;;;;21.21;16.73;100571.44;4976144;28;20129;-83
2022/05/08 07:55:10;;;;;;;3.83;1.60;;;;;;;21.50;16.63;100566.50;4959452;28;20091;-83
2022/05/08 07:57:37;;;;;;;5.60;1.92;;;;;;;21.82;16.52;100565.78;4959984;28;20046;-81
2022/05/08 08:00:04;;;;;;;7.80;1.52;;;;;;;21.76;16.64;100560.13;4956783;28;20046;-82
2022/05/08 08:02:40;;;;;;;6.55;1.58;;;;;;;21.63;15.37;100557.06;4975429;28;20043;-78
2022/05/08 08:05:06;;;;;;;4.57;1.40;;;;;;;21.38;15.79;100562.38;4975165;28;20504;-78
2022/05/08 08:07:32;;;;;;;4.70;1.52;;;;;;;21.41;15.91;100548.47;4971389;28;20046;-79
2022/05/08 08:09:58;;;;;;;3.17;1.75;;;;;;;21.54;15.98;100540.66;4967801;28;20086;-79
2022/05/08 08:12:26;;;;;;;5.20;1.75;;;;;;;21.93;15.99;100540.13;4956019;28;20479;-79
2022/05/08 08:14:52;;;;;;;2.22;1.70;;;;;;;22.05;15.89;100537.94;4959661;28;20534;-77
2022/05/08 08:17:19;;;;;;;6.43;1.70;;;;;;;22.19;15.24;100533.69;4977512;28;20085;-79
2022/05/08 08:19:44;;;;;;;2.85;1.52;;;;;;;22.15;15.48;100533.19;4996202;28;20053;-79
2022/05/08 08:22:10;;;;;;;6.40;1.90;;;;;;;22.15;15.24;100527.72;4962763;28;20049;-80
2022/05/08 08:24:37;;;;;;;6.63;1.60;;;;;;;21.42;15.27;100531.09;4962716;28;20428;-79
2022/05/08 08:27:03;;;;;;;3.47;1.40;;;;;;;21.44;15.52;100518.22;4978209;28;20050;-79
2022/05/08 08:29:29;;;;;;;5.85;1.60;;;;;;;21.40;15.00;100516.84;4962288;28;20056;-77
2022/05/08 08:31:55;;;;;;;5.68;1.40;;;;;;;21.43;15.59;100505.59;4962739;28;20635;-80
2022/05/08 08:34:21;;;;;;;3.95;2.05;;;;;;;22.01;16.19;100515.63;4962249;28;20051;-78
2022/05/08 08:36:49;;;;;;;3.33;1.40;;;;;;;22.39;15.42;100509.72;4943722;28;20493;-80
2022/05/08 08:39:15;;;;;;;4.90;1.35;;;;;;;22.59;14.22;100512.94;4993832;28;20493;-79
2022/05/08 08:41:45;;;;;;;6.85;1.55;;;;;;;22.28;14.22;100502.75;4994503;28;20050;-78
2022/05/08 08:49:53;;;;;;;3.40;1.58;;;;;;;22.61;14.65;100476.31;4978466;28;20054;-80
2022/05/08 08:52:25;;;;;;;3.85;1.20;;;;;;;23.04;14.73;100482.34;4962718;28;20592;-80
2022/05/08 08:54:51;;;;;;;4.50;1.15;;;;;;;23.43;14.54;100487.81;4996177;28;20057;-80
2022/05/08 08:57:17;;;;;;;2.13;1.30;;;;;;;23.41;13.86;100473.50;4953721;28;20045;-77
2022/05/08 08:59:43;;;;;;;4.40;1.33;;;;;;;23.16;13.59;100466.44;4939543;28;20038;-79
2022/05/08 09:02:20;;;;;;;6.07;1.10;;;;;;;23.34;13.65;100475.25;4985146;28;20052;-78
2022/05/08 09:04:49;;;;;;;2.35;1.30;;;;;;;23.46;14.12;100457.44;4937327;28;20533;-77
2022/05/08 09:07:33;;;;;;;;;;;;;;;23.65;13.91;100467.03;4967196;28;20037;-79
2022/05/08 09:10:07;;;;;;;7.43;1.60;;;;;;;23.74;13.41;100460.53;4960595;28;19944;-77
2022/05/08 09:12:34;;;;;;;3.25;1.30;;;;;;;23.92;13.29;100460.25;4935294;28;20039;-79
2022/05/08 09:15:18;;;;;;;5.68;1.33;;;;;;;24.23;13.25;100465.63;4968052;28;20048;-78
2022/05/08 09:17:47;;;;;;;8.10;1.67;;;;;;;24.18;13.52;100459.00;4988075;28;20046;-79
2022/05/08 09:20:40;;;;;;;3.90;1.63;;;;;;;24.30;13.66;100457.53;4960934;28;20398;-80
2022/05/08 09:23:17;;;;;;;10.00;1.60;;;;;;;24.61;13.26;100462.91;4966561;28;20066;-79
2022/05/08 09:26:00;;;;;;;14.52;1.58;;;;;;;24.77;12.54;100453.66;4942870;28;20043;-79
2022/05/08 09:28:27;;;;;;;4.63;1.92;;;;;;;24.60;13.02;100454.91;4975099;28;20497;-80
2022/05/08 09:31:07;;;;;;;13.55;2.20;;;;;;;24.74;12.79;100450.47;4976844;28;20038;-81
2022/05/08 09:33:39;;;;;;;6.30;1.40;;;;;;;24.57;12.54;100449.81;4962011;28;20046;-78
2022/05/08 09:36:27;;;;;;;3.50;1.40;;;;;;;24.69;13.13;100448.28;4963547;28;20512;-78
2022/05/08 09:39:00;;;;;;;5.32;1.35;;;;;;;24.55;12.56;100451.84;4965143;28;20038;-84
2022/05/08 09:41:31;;;;;;;4.75;1.30;;;;;;;24.69;12.52;100448.28;4942507;28;20050;-84
2022/05/08 09:44:14;;;;;;;16.95;1.70;;;;;;;24.65;12.74;100441.50;4964172;28;20047;-86
2022/05/08 09:46:46;;;;;;;4.05;1.25;;;;;;;24.97;12.65;100434.78;4974652;28;20054;-82
2022/05/08 09:49:13;;;;;;;7.22;1.60;;;;;;;25.16;12.62;100400.56;4995757;28;20150;-82
2022/05/08 09:51:43;;;;;;;10.07;2.40;;;;;;;25.49;12.59;100402.84;4957101;28;20425;-79
2022/05/08 09:54:11;;;;;;;6.50;1.75;;;;;;;25.96;12.40;100406.94;4955879;28;20050;-80
2022/05/08 09:56:37;;;;;;;15.52;2.22;;;;;;;25.94;12.21;100415.31;4958641;28;20035;-80
2022/05/08 09:59:08;;;;;;;6.47;1.30;;;;;;;26.43;12.27;100413.63;4974489;28;20054;-80
2022/05/08 10:01:34;;;;;;;5.72;1.95;;;;;;;26.89;11.17;100408.44;4974637;28;20130;-81
2022/05/08 10:04:00;;;;;;;4.03;1.13;;;;;;;26.12;11.91;100412.13;4958225;28;20101;-81
2022/05/08 10:06:29;;;;;;;3.55;1.30;;;;;;;26.65;11.82;100418.00;4957925;28;20050;-81
2022/05/08 10:13:53;;;;;;;5.43;1.20;;;;;;;26.66;11.58;100392.28;4974395;28;20050;-81
2022/05/08 10:14:33;;;;;;;3.20;1.30;;;;;;;27.10;11.17;100388.28;4941912;28;20045;-80
2022/05/08 10:17:05;;;;;;;6.05;1.63;;;;;;;27.48;11.21;100396.03;4974506;28;20054;-80
2022/05/08 10:19:31;;;;;;;6.55;1.77;;;;;;;27.79;11.02;100392.72;4925921;28;20130;-81
2022/05/08 10:22:17;;;;;;;7.95;1.40;;;;;;;28.15;10.56;100375.84;4918889;29;20079;-80
2022/05/08 10:24:54;;;;;;;3.17;1.23;;;;;;;28.69;10.35;100382.94;4887242;29;20059;-79
2022/05/08 10:27:30;;;;;;;3.10;1.20;;;;;;;29.17;10.60;100371.56;4918543;29;20102;-82
2022/05/08 10:29:56;;;;;;;8.13;1.48;;;;;;;29.58;10.10;100370.31;4918836;29;20515;-81
2022/05/08 10:32:31;;;;;;;6.05;1.35;;;;;;;29.67;9.76;100365.38;4918952;29;20573;-82
2022/05/08 10:35:03;;;;;;;4.10;1.48;;;;;;;29.53;9.89;100356.34;4903195;29;20106;-81
2022/05/08 10:37:30;;;;;;;3.55;1.50;;;;;;;29.43;10.09;100361.47;4886058;29;20044;-81
2022/05/08 10:39:57;;;;;;;1.50;1.30;;;;;;;28.70;10.30;100357.16;4934830;29;20122;-81
2022/05/08 10:42:23;;;;;;;7.25;2.10;;;;;;;28.49;10.65;100360.16;4901557;29;20105;-82
2022/05/08 10:44:51;;;;;;;6.85;1.40;;;;;;;28.36;10.33;100349.16;4907812;29;20052;-81
2022/05/08 10:47:34;;;;;;;4.28;1.52;;;;;;;28.04;10.76;100340.75;4915357;29;20079;-81
2022/05/08 10:50:04;;;;;;;6.82;1.52;;;;;;;27.84;10.78;100336.09;4880387;29;20068;-82
2022/05/08 10:52:31;;;;;;;3.20;1.45;;;;;;;27.52;11.01;100331.41;4911711;29;20500;-80
2022/05/08 10:55:02;;;;;;;1.92;1.25;;;;;;;26.90;10.95;100322.34;4896182;29;20048;-82
2022/05/08 10:57:31;;;;;;;2.75;1.30;;;;;;;25.98;11.27;100323.47;4911870;29;20500;-81
2022/05/08 10:59:59;;;;;;;3.08;1.50;;;;;;;25.60;11.84;100321.03;4915517;29;20047;-81
2022/05/08 11:02:43;;;;;;;4.85;2.05;;;;;;;26.13;11.27;100320.63;4953983;29;20406;-79
2022/05/08 11:05:11;;;;;;;2.20;1.30;;;;;;;26.30;11.23;100321.19;4956220;28;20474;-82
2022/05/08 11:07:39;;;;;;;4.85;1.75;;;;;;;26.72;11.74;100314.69;4957223;28;20045;-79
2022/05/08 11:10:16;;;;;;;2.95;1.27;;;;;;;26.84;10.60;100302.06;4940203;28;20078;-80
2022/05/08 11:13:05;;;;;;;4.10;1.83;;;;;;;27.01;10.74;100310.78;4940646;28;20050;-80
2022/05/08 11:15:33;;;;;;;4.97;1.67;;;;;;;28.11;10.78;100297.59;4972879;28;20047;-81
2022/05/08 11:18:03;;;;;;;;;;;;;;;28.14;10.12;100297.19;4957542;28;20062;-80
2022/05/08 11:20:36;;;;;;;4.90;1.45;;;;;;;28.01;10.24;100292.53;4956610;28;19925;-81
2022/05/08 11:23:05;;;;;;;7.38;1.58;;;;;;;28.71;10.29;100276.28;4922233;28;20194;-81
2022/05/08 11:25:33;;;;;;;5.10;1.52;;;;;;;29.47;9.77;100269.06;4957106;28;20110;-81
2022/05/08 11:27:59;;;;;;;5.47;1.65;;;;;;;29.60;10.07;100269.00;4957621;28;20047;-83
2022/05/08 11:30:34;;;;;;;8.13;1.88;;;;;;;29.88;9.95;100268.53;4958002;28;20050;-82
2022/05/08 11:36:05;;;;;;;13.15;2.58;;;;;;;30.85;9.29;100263.22;4956631;28;20094;-82
2022/05/08 11:38:44;;;;;;;7.60;2.20;;;;;;;31.15;8.90;100265.97;4921832;29;20074;-82
2022/05/08 11:41:13;;;;;;;7.35;1.83;;;;;;;31.47;9.26;100260.19;4948737;28;20403;-82
2022/05/08 11:43:46;;;;;;;7.28;1.90;;;;;;;31.39;9.39;100257.78;4940790;28;20595;-81
2022/05/08 11:46:17;;;;;;;5.03;1.98;;;;;;;31.72;9.08;100248.94;4956774;28;20043;-82
2022/05/08 11:48:47;;;;;;;5.18;2.08;;;;;;;31.31;9.17;100247.06;4928910;28;20498;-81
2022/05/08 11:51:21;;;;;;;5.22;1.88;;;;;;;30.87;8.87;100240.91;4997352;28;20053;-84
2022/05/08 11:53:49;;;;;;;5.43;1.88;;;;;;;29.39;9.39;100245.41;4997490;28;20073;-82
2022/05/08 11:56:22;;;;;;;8.88;1.90;;;;;;;28.90;9.89;100240.63;4947763;28;20101;-82